Terminal Aerodrome Forecast
Issued by NWS Blacksburg, VA

Home | Current Version | Previous Version | Text Only | Print | Product List | Glossary On
Versions: 1 2 3 4 5 6 7 8 9 10 11 12 13 14 15 16 17 18 19 20 21 22 23 24
000
FTUS41 KRNK 191124
TAFDAN
TAF
KDAN 191124Z 1912/2012 23003KT P6SM BKN200
     FM200000 12005KT 5SM RA SCT030 OVC070
     FM200500 04008G17KT 3SM RA BR OVC013=

USA.gov is the U.S. government's official web portal to all federal, state and local government web resources and services.